sensor_id;sensor_type;location;lat;lon;timestamp;pressure;altitude;pressure_sealevel;temperature;humidity
9969;BME280;5025;48.890;9.278;2023-05-22T00:01:45;98350.03;;;17.78;67.59
9969;BME280;5025;48.890;9.278;2023-05-22T00:04:13;98350.59;;;17.74;67.50
9969;BME280;5025;48.890;9.278;2023-05-22T00:06:45;98348.44;;;17.71;67.62
9969;BME280;5025;48.890;9.278;2023-05-22T00:09:10;98350.09;;;17.67;67.97
9969;BME280;5025;48.890;9.278;2023-05-22T00:11:36;98349.63;;;17.60;68.07
9969;BME280;5025;48.890;9.278;2023-05-22T00:14:01;98351.53;;;17.60;68.22
9969;BME280;5025;48.890;9.278;2023-05-22T00:16:26;98340.31;;;17.61;68.23
9969;BME280;5025;48.890;9.278;2023-05-22T00:18:51;98342.53;;;17.59;68.19
9969;BME280;5025;48.890;9.278;2023-05-22T00:21:17;98339.28;;;17.57;68.21
9969;BME280;5025;48.890;9.278;2023-05-22T00:23:42;98339.00;;;17.53;68.21
9969;BME280;5025;48.890;9.278;2023-05-22T00:26:07;98343.44;;;17.49;68.37
9969;BME280;5025;48.890;9.278;2023-05-22T00:28:33;98342.38;;;17.45;68.40
9969;BME280;5025;48.890;9.278;2023-05-22T00:30:58;98342.13;;;17.42;68.40
9969;BME280;5025;48.890;9.278;2023-05-22T00:33:23;98342.69;;;17.38;68.54
9969;BME280;5025;48.890;9.278;2023-05-22T00:35:48;98338.91;;;17.34;68.54
9969;BME280;5025;48.890;9.278;2023-05-22T00:38:31;98342.19;;;17.31;68.61
9969;BME280;5025;48.890;9.278;2023-05-22T00:40:58;98331.56;;;17.30;68.60
9969;BME280;5025;48.890;9.278;2023-05-22T00:43:24;98338.94;;;17.29;68.81
9969;BME280;5025;48.890;9.278;2023-05-22T00:45:49;98333.50;;;17.29;68.77
9969;BME280;5025;48.890;9.278;2023-05-22T00:48:14;98331.28;;;17.31;68.63
9969;BME280;5025;48.890;9.278;2023-05-22T00:50:40;98334.00;;;17.31;68.71
9969;BME280;5025;48.890;9.278;2023-05-22T00:53:06;98334.84;;;17.27;68.77
9969;BME280;5025;48.890;9.278;2023-05-22T00:55:32;98328.09;;;17.19;68.87
9969;BME280;5025;48.890;9.278;2023-05-22T00:57:57;98336.31;;;17.14;68.94
9969;BME280;5025;48.890;9.278;2023-05-22T01:00:23;98336.31;;;17.14;69.05
9969;BME280;5025;48.890;9.278;2023-05-22T01:02:49;98339.91;;;17.09;69.12
9969;BME280;5025;48.890;9.278;2023-05-22T01:05:15;98346.72;;;17.07;69.12
9969;BME280;5025;48.890;9.278;2023-05-22T01:07:43;98345.66;;;17.02;69.25
9969;BME280;5025;48.890;9.278;2023-05-22T01:10:09;98344.59;;;16.98;69.39
9969;BME280;5025;48.890;9.278;2023-05-22T01:12:47;98341.34;;;16.96;69.44
9969;BME280;5025;48.890;9.278;2023-05-22T01:15:42;98341.91;;;16.93;69.65
9969;BME280;5025;48.890;9.278;2023-05-22T01:20:51;98337.28;;;16.83;69.81
9969;BME280;5025;48.890;9.278;2023-05-22T01:23:40;98347.66;;;16.81;69.97
9969;BME280;5025;48.890;9.278;2023-05-22T01:26:21;98346.56;;;16.77;70.16
9969;BME280;5025;48.890;9.278;2023-05-22T01:29:07;98353.16;;;16.76;70.00
9969;BME280;5025;48.890;9.278;2023-05-22T01:31:38;98358.31;;;16.73;70.39
9969;BME280;5025;48.890;9.278;2023-05-22T01:34:07;98356.19;;;16.64;70.38
9969;BME280;5025;48.890;9.278;2023-05-22T01:36:35;98360.00;;;16.63;70.54
9969;BME280;5025;48.890;9.278;2023-05-22T01:39:01;98363.31;;;16.55;70.75
9969;BME280;5025;48.890;9.278;2023-05-22T01:41:31;98366.03;;;16.55;70.89
9969;BME280;5025;48.890;9.278;2023-05-22T01:43:56;98363.88;;;16.52;70.98
9969;BME280;5025;48.890;9.278;2023-05-22T01:46:26;98364.94;;;16.51;71.09
9969;BME280;5025;48.890;9.278;2023-05-22T01:48:51;98361.94;;;16.53;71.09
9969;BME280;5025;48.890;9.278;2023-05-22T01:51:19;98361.66;;;16.54;71.16
9969;BME280;5025;48.890;9.278;2023-05-22T01:53:56;98361.13;;;16.52;71.11
9969;BME280;5025;48.890;9.278;2023-05-22T01:56:40;98369.06;;;16.48;71.13
9969;BME280;5025;48.890;9.278;2023-05-22T01:59:16;98374.22;;;16.45;71.23
9969;BME280;5025;48.890;9.278;2023-05-22T02:01:47;98362.81;;;16.43;71.23
9969;BME280;5025;48.890;9.278;2023-05-22T02:04:15;98370.44;;;16.41;71.33
9969;BME280;5025;48.890;9.278;2023-05-22T02:06:43;98366.88;;;16.40;71.42
9969;BME280;5025;48.890;9.278;2023-05-22T02:09:09;98372.34;;;16.40;71.47
9969;BME280;5025;48.890;9.278;2023-05-22T02:11:36;98369.38;;;16.37;71.49
9969;BME280;5025;48.890;9.278;2023-05-22T02:14:02;98373.47;;;16.29;71.67
9969;BME280;5025;48.890;9.278;2023-05-22T02:16:28;98379.78;;;16.19;71.80
9969;BME280;5025;48.890;9.278;2023-05-22T02:18:58;98374.84;;;16.11;72.08
9969;BME280;5025;48.890;9.278;2023-05-22T02:21:30;98372.16;;;16.06;72.41
9969;BME280;5025;48.890;9.278;2023-05-22T02:23:55;98365.06;;;16.05;72.54
9969;BME280;5025;48.890;9.278;2023-05-22T02:26:20;98368.34;;;16.07;72.58
9969;BME280;5025;48.890;9.278;2023-05-22T02:28:45;98366.16;;;16.09;72.62
9969;BME280;5025;48.890;9.278;2023-05-22T02:31:11;98364.78;;;16.06;72.46
9969;BME280;5025;48.890;9.278;2023-05-22T02:33:36;98363.97;;;16.06;72.63
9969;BME280;5025;48.890;9.278;2023-05-22T02:36:01;98363.97;;;16.06;72.73
9969;BME280;5025;48.890;9.278;2023-05-22T02:38:27;98365.91;;;16.05;72.78
9969;BME280;5025;48.890;9.278;2023-05-22T02:40:52;98370.50;;;16.05;73.04
9969;BME280;5025;48.890;9.278;2023-05-22T02:43:17;98365.06;;;16.05;73.26
9969;BME280;5025;48.890;9.278;2023-05-22T02:45:42;98367.78;;;16.05;73.41
9969;BME280;5025;48.890;9.278;2023-05-22T02:48:08;98362.06;;;16.06;73.42
9969;BME280;5025;48.890;9.278;2023-05-22T02:50:33;98365.06;;;16.05;73.52
9969;BME280;5025;48.890;9.278;2023-05-22T02:52:58;98364.53;;;16.03;73.62
9969;BME280;5025;48.890;9.278;2023-05-22T02:55:23;98367.53;;;15.96;73.78
9969;BME280;5025;48.890;9.278;2023-05-22T02:57:49;98362.34;;;15.89;73.80
9969;BME280;5025;48.890;9.278;2023-05-22T03:00:14;98360.47;;;15.90;73.83
9969;BME280;5025;48.890;9.278;2023-05-22T03:02:40;98357.47;;;15.91;73.85
9969;BME280;5025;48.890;9.278;2023-05-22T03:05:05;98353.09;;;15.90;73.85
9969;BME280;5025;48.890;9.278;2023-05-22T03:07:31;98359.94;;;15.93;73.79
9969;BME280;5025;48.890;9.278;2023-05-22T03:09:56;98363.47;;;15.88;73.97
9969;BME280;5025;48.890;9.278;2023-05-22T03:12:22;98364.56;;;15.82;74.19
9969;BME280;5025;48.890;9.278;2023-05-22T03:14:47;98365.63;;;15.81;74.07
9969;BME280;5025;48.890;9.278;2023-05-22T03:17:12;98375.72;;;15.81;73.97
9969;BME280;5025;48.890;9.278;2023-05-22T03:19:37;98377.59;;;15.75;74.14
9969;BME280;5025;48.890;9.278;2023-05-22T03:22:03;98389.56;;;15.69;73.85
9969;BME280;5025;48.890;9.278;2023-05-22T03:24:28;98386.59;;;15.65;73.76
9969;BME280;5025;48.890;9.278;2023-05-22T03:26:53;98383.59;;;15.62;73.78
9969;BME280;5025;48.890;9.278;2023-05-22T03:29:19;98391.75;;;15.62;73.71
9969;BME280;5025;48.890;9.278;2023-05-22T03:31:45;98391.19;;;15.59;73.86
9969;BME280;5025;48.890;9.278;2023-05-22T03:34:10;98395.84;;;15.59;73.77
9969;BME280;5025;48.890;9.278;2023-05-22T03:36:35;98391.75;;;15.56;73.87
9969;BME280;5025;48.890;9.278;2023-05-22T03:39:02;98391.22;;;15.54;73.90
9969;BME280;5025;48.890;9.278;2023-05-22T03:41:27;98396.13;;;15.52;73.93
9969;BME280;5025;48.890;9.278;2023-05-22T03:43:52;98390.66;;;15.52;74.08
9969;BME280;5025;48.890;9.278;2023-05-22T03:46:18;98393.38;;;15.52;74.33
9969;BME280;5025;48.890;9.278;2023-05-22T03:48:43;98396.38;;;15.56;74.24
9969;BME280;5025;48.890;9.278;2023-05-22T03:51:09;98397.75;;;15.58;74.22
9969;BME280;5025;48.890;9.278;2023-05-22T03:53:34;98388.47;;;15.59;74.16
9969;BME280;5025;48.890;9.278;2023-05-22T03:55:59;98396.91;;;15.58;74.31
9969;BME280;5025;48.890;9.278;2023-05-22T03:58:25;98397.19;;;15.56;74.36
9969;BME280;5025;48.890;9.278;2023-05-22T04:00:52;98398.81;;;15.57;74.47
9969;BME280;5025;48.890;9.278;2023-05-22T04:03:17;98403.44;;;15.52;74.59
9969;BME280;5025;48.890;9.278;2023-05-22T04:05:43;98397.19;;;15.46;74.79
9969;BME280;5025;48.890;9.278;2023-05-22T04:08:09;98399.88;;;15.41;74.81
9969;BME280;5025;48.890;9.278;2023-05-22T04:10:34;98407.25;;;15.35;75.02
9969;BME280;5025;48.890;9.278;2023-05-22T04:13:01;98407.78;;;15.32;75.06
9969;BME280;5025;48.890;9.278;2023-05-22T04:15:26;98403.16;;;15.33;75.29
9969;BME280;5025;48.890;9.278;2023-05-22T04:17:52;98406.13;;;15.31;75.24
9969;BME280;5025;48.890;9.278;2023-05-22T04:20:18;98407.78;;;15.32;75.30
9969;BME280;5025;48.890;9.278;2023-05-22T04:22:46;98417.56;;;15.33;75.43
9969;BME280;5025;48.890;9.278;2023-05-22T04:25:13;98403.16;;;15.38;75.53
9969;BME280;5025;48.890;9.278;2023-05-22T04:27:38;98399.88;;;15.41;75.54
9969;BME280;5025;48.890;9.278;2023-05-22T04:30:06;98396.09;;;15.47;75.70
9969;BME280;5025;48.890;9.278;2023-05-22T04:32:32;98396.66;;;15.49;75.91
9969;BME280;5025;48.890;9.278;2023-05-22T04:34:58;98407.00;;;15.52;75.96
9969;BME280;5025;48.890;9.278;2023-05-22T04:37:24;98407.53;;;15.54;76.04
9969;BME280;5025;48.890;9.278;2023-05-22T04:39:52;98415.16;;;15.57;76.10
9969;BME280;5025;48.890;9.278;2023-05-22T04:42:22;98415.16;;;15.57;76.30
9969;BME280;5025;48.890;9.278;2023-05-22T04:44:49;98416.22;;;15.56;76.39
9969;BME280;5025;48.890;9.278;2023-05-22T04:47:17;98420.06;;;15.55;76.65
9969;BME280;5025;48.890;9.278;2023-05-22T04:49:43;98424.13;;;15.53;76.75
9969;BME280;5025;48.890;9.278;2023-05-22T04:52:10;98436.94;;;15.52;77.04
9969;BME280;5025;48.890;9.278;2023-05-22T04:54:35;98424.94;;;15.53;77.02
9969;BME280;5025;48.890;9.278;2023-05-22T04:57:01;98432.03;;;15.54;76.96
9969;BME280;5025;48.890;9.278;2023-05-22T04:59:30;98423.59;;;15.56;77.20
9969;BME280;5025;48.890;9.278;2023-05-22T05:01:57;98430.41;;;15.58;76.99
9969;BME280;5025;48.890;9.278;2023-05-22T05:04:22;98433.13;;;15.58;77.19
9969;BME280;5025;48.890;9.278;2023-05-22T05:06:48;98431.50;;;15.57;77.17
9969;BME280;5025;48.890;9.278;2023-05-22T05:09:13;98433.41;;;15.62;77.43
9969;BME280;5025;48.890;9.278;2023-05-22T05:11:38;98428.75;;;15.63;77.34
9969;BME280;5025;48.890;9.278;2023-05-22T05:14:04;98433.41;;;15.67;77.44
9969;BME280;5025;48.890;9.278;2023-05-22T05:16:29;98433.69;;;15.71;77.39
9969;BME280;5025;48.890;9.278;2023-05-22T05:18:55;98433.97;;;15.74;77.46
9969;BME280;5025;48.890;9.278;2023-05-22T05:21:20;98424.97;;;15.74;77.48
9969;BME280;5025;48.890;9.278;2023-05-22T05:23:46;98439.13;;;15.76;77.58
9969;BME280;5025;48.890;9.278;2023-05-22T05:26:11;98419.03;;;15.77;77.65
9969;BME280;5025;48.890;9.278;2023-05-22T05:28:37;98423.09;;;15.80;77.71
9969;BME280;5025;48.890;9.278;2023-05-22T05:31:02;98428.00;;;15.83;77.74
9969;BME280;5025;48.890;9.278;2023-05-22T05:33:27;98423.91;;;15.85;77.77
9969;BME280;5025;48.890;9.278;2023-05-22T05:35:52;98422.00;;;15.86;77.83
9969;BME280;5025;48.890;9.278;2023-05-22T05:38:18;98426.66;;;15.85;77.98
9969;BME280;5025;48.890;9.278;2023-05-22T05:40:44;98423.34;;;15.83;78.16
9969;BME280;5025;48.890;9.278;2023-05-22T05:43:09;98428.53;;;15.80;78.48
9969;BME280;5025;48.890;9.278;2023-05-22T05:45:35;98434.25;;;15.83;78.69
9969;BME280;5025;48.890;9.278;2023-05-22T05:48:00;98426.66;;;15.85;78.68
9969;BME280;5025;48.890;9.278;2023-05-22T05:50:25;98431.53;;;15.88;78.76
9969;BME280;5025;48.890;9.278;2023-05-22T05:52:51;98431.81;;;15.92;78.72
9969;BME280;5025;48.890;9.278;2023-05-22T05:55:16;98430.44;;;16.00;78.74
9969;BME280;5025;48.890;9.278;2023-05-22T05:57:41;98433.72;;;16.07;78.76
9969;BME280;5025;48.890;9.278;2023-05-22T06:00:07;98434.78;;;16.11;78.65
9969;BME280;5025;48.890;9.278;2023-05-22T06:02:35;98436.97;;;16.19;78.62
9969;BME280;5025;48.890;9.278;2023-05-22T06:05:01;98432.03;;;16.26;78.67
9969;BME280;5025;48.890;9.278;2023-05-22T06:07:29;98434.22;;;16.35;78.62
9969;BME280;5025;48.890;9.278;2023-05-22T06:09:55;98437.19;;;16.43;78.54
9969;BME280;5025;48.890;9.278;2023-05-22T06:12:20;98434.75;;;16.47;78.51
9969;BME280;5025;48.890;9.278;2023-05-22T06:14:46;98433.09;;;16.46;79.04
9969;BME280;5025;48.890;9.278;2023-05-22T06:17:11;98436.66;;;16.52;79.19
9969;BME280;5025;48.890;9.278;2023-05-22T06:19:36;98432.81;;;16.58;79.32
9969;BME280;5025;48.890;9.278;2023-05-22T06:22:02;98433.88;;;16.67;79.52
9969;BME280;5025;48.890;9.278;2023-05-22T06:24:27;98436.03;;;16.75;79.32
9969;BME280;5025;48.890;9.278;2023-05-22T06:26:52;98437.66;;;16.87;79.15
9969;BME280;5025;48.890;9.278;2023-05-22T06:29:18;98436.81;;;16.96;78.99
9969;BME280;5025;48.890;9.278;2023-05-22T06:31:43;98439.22;;;17.03;78.89
9969;BME280;5025;48.890;9.278;2023-05-22T06:34:08;98434.84;;;17.02;79.42
9969;BME280;5025;48.890;9.278;2023-05-22T06:36:33;98432.13;;;17.02;79.67
9969;BME280;5025;48.890;9.278;2023-05-22T06:39:00;98433.22;;;17.06;80.04
9969;BME280;5025;48.890;9.278;2023-05-22T06:41:25;98430.44;;;17.11;79.83
9969;BME280;5025;48.890;9.278;2023-05-22T06:43:51;98433.16;;;17.16;79.93
9969;BME280;5025;48.890;9.278;2023-05-22T06:46:16;98437.22;;;17.19;79.96
9969;BME280;5025;48.890;9.278;2023-05-22T06:48:41;98430.41;;;17.22;79.85
9969;BME280;5025;48.890;9.278;2023-05-22T06:51:07;98428.44;;;17.27;79.91
9969;BME280;5025;48.890;9.278;2023-05-22T06:53:35;98435.56;;;17.28;80.37
9969;BME280;5025;48.890;9.278;2023-05-22T06:56:00;98436.06;;;17.30;80.41
9969;BME280;5025;48.890;9.278;2023-05-22T06:58:25;98426.75;;;17.36;80.34
9969;BME280;5025;48.890;9.278;2023-05-22T07:00:51;98430.00;;;17.44;80.18
9969;BME280;5025;48.890;9.278;2023-05-22T07:03:17;98434.84;;;17.52;79.84
9969;BME280;5025;48.890;9.278;2023-05-22T07:05:43;98436.75;;;17.56;79.77
9969;BME280;5025;48.890;9.278;2023-05-22T07:08:08;98440.25;;;17.62;79.50
9969;BME280;5025;48.890;9.278;2023-05-22T07:10:34;98439.13;;;17.68;79.38
9969;BME280;5025;48.890;9.278;2023-05-22T07:12:59;98439.06;;;17.73;79.22
9969;BME280;5025;48.890;9.278;2023-05-22T07:15:24;98439.88;;;17.79;79.14
9969;BME280;5025;48.890;9.278;2023-05-22T07:17:50;98436.81;;;17.86;78.99
9969;BME280;5025;48.890;9.278;2023-05-22T07:20:15;98441.97;;;17.87;78.95
9969;BME280;5025;48.890;9.278;2023-05-22T07:22:41;98454.25;;;17.95;78.91
9969;BME280;5025;48.890;9.278;2023-05-22T07:25:07;98438.63;;;18.01;78.69
9969;BME280;5025;48.890;9.278;2023-05-22T07:27:32;98443.59;;;17.99;78.73
9969;BME280;5025;48.890;9.278;2023-05-22T07:29:57;98438.34;;;18.02;78.61
9969;BME280;5025;48.890;9.278;2023-05-22T07:32:23;98434.19;;;18.10;78.45
9969;BME280;5025;48.890;9.278;2023-05-22T07:34:48;98442.59;;;18.19;78.14
9969;BME280;5025;48.890;9.278;2023-05-22T07:37:14;98437.00;;;18.29;77.74
9969;BME280;5025;48.890;9.278;2023-05-22T07:39:39;98442.97;;;18.36;77.65
9969;BME280;5025;48.890;9.278;2023-05-22T07:42:05;98441.00;;;18.42;77.42
9969;BME280;5025;48.890;9.278;2023-05-22T07:44:30;98434.41;;;18.43;77.66
9969;BME280;5025;48.890;9.278;2023-05-22T07:46:55;98437.38;;;18.46;78.00
9969;BME280;5025;48.890;9.278;2023-05-22T07:49:22;98438.09;;;18.57;77.97
9969;BME280;5025;48.890;9.278;2023-05-22T07:51:48;98445.09;;;18.69;77.69
9969;BME280;5025;48.890;9.278;2023-05-22T07:54:13;98438.47;;;18.75;77.36
9969;BME280;5025;48.890;9.278;2023-05-22T07:56:42;98439.19;;;18.80;77.12
9969;BME280;5025;48.890;9.278;2023-05-22T07:59:07;98432.31;;;18.88;77.13
9969;BME280;5025;48.890;9.278;2023-05-22T08:01:35;98440.41;;;18.98;76.75
9969;BME280;5025;48.890;9.278;2023-05-22T08:04:02;98434.91;;;18.98;76.52
9969;BME280;5025;48.890;9.278;2023-05-22T08:06:27;98433.69;;;19.10;76.32
9969;BME280;5025;48.890;9.278;2023-05-22T08:08:53;98436.06;;;19.16;76.08
9969;BME280;5025;48.890;9.278;2023-05-22T08:11:19;98429.72;;;19.21;75.95
9969;BME280;5025;48.890;9.278;2023-05-22T08:13:45;98437.25;;;19.29;75.59
9969;BME280;5025;48.890;9.278;2023-05-22T08:16:10;98437.72;;;19.37;75.44
9969;BME280;5025;48.890;9.278;2023-05-22T08:18:35;98434.31;;;19.45;75.27
9969;BME280;5025;48.890;9.278;2023-05-22T08:21:00;98436.38;;;19.53;74.84
9969;BME280;5025;48.890;9.278;2023-05-22T08:23:26;98434.59;;;19.62;74.81
9969;BME280;5025;48.890;9.278;2023-05-22T08:25:51;98441.31;;;19.70;74.36
9969;BME280;5025;48.890;9.278;2023-05-22T08:28:16;98436.84;;;19.79;74.12
9969;BME280;5025;48.890;9.278;2023-05-22T08:30:41;98438.09;;;19.87;73.71
9969;BME280;5025;48.890;9.278;2023-05-22T08:33:07;98437.19;;;19.92;73.35
9969;BME280;5025;48.890;9.278;2023-05-22T08:35:32;98437.53;;;20.04;73.31
9969;BME280;5025;48.890;9.278;2023-05-22T08:37:57;98435.94;;;20.17;72.64
9969;BME280;5025;48.890;9.278;2023-05-22T08:40:23;98430.75;;;20.15;71.77
9969;BME280;5025;48.890;9.278;2023-05-22T08:42:50;98433.00;;;20.13;70.01
9969;BME280;5025;48.890;9.278;2023-05-22T08:45:18;98424.00;;;20.27;69.77
9969;BME280;5025;48.890;9.278;2023-05-22T08:47:46;98426.78;;;20.40;69.93
9969;BME280;5025;48.890;9.278;2023-05-22T08:50:16;98423.63;;;20.47;69.47
9969;BME280;5025;48.890;9.278;2023-05-22T08:52:49;98429.91;;;20.62;69.09
9969;BME280;5025;48.890;9.278;2023-05-22T08:55:15;98418.28;;;20.70;67.85
9969;BME280;5025;48.890;9.278;2023-05-22T08:57:47;98419.72;;;20.81;68.10
9969;BME280;5025;48.890;9.278;2023-05-22T09:00:13;98416.66;;;20.97;67.57
9969;BME280;5025;48.890;9.278;2023-05-22T09:02:40;98428.34;;;21.02;66.87
9969;BME280;5025;48.890;9.278;2023-05-22T09:05:06;98422.19;;;21.19;66.44
9969;BME280;5025;48.890;9.278;2023-05-22T09:07:33;98424.94;;;21.19;66.01
9969;BME280;5025;48.890;9.278;2023-05-22T09:09:58;98427.59;;;21.24;65.72
9969;BME280;5025;48.890;9.278;2023-05-22T09:12:24;98430.06;;;21.12;61.23
9969;BME280;5025;48.890;9.278;2023-05-22T09:14:50;98433.28;;;21.14;60.04
9969;BME280;5025;48.890;9.278;2023-05-22T09:17:16;98428.13;;;21.12;60.23
9969;BME280;5025;48.890;9.278;2023-05-22T09:19:44;98427.19;;;21.17;60.76
9969;BME280;5025;48.890;9.278;2023-05-22T09:22:10;98431.03;;;21.16;61.15
9969;BME280;5025;48.890;9.278;2023-05-22T09:27:09;98429.91;;;21.31;60.63
9969;BME280;5025;48.890;9.278;2023-05-22T09:29:46;98426.94;;;21.41;61.06
9969;BME280;5025;48.890;9.278;2023-05-22T09:32:15;98427.56;;;21.52;61.16
9969;BME280;5025;48.890;9.278;2023-05-22T09:34:41;98428.53;;;21.56;60.50
9969;BME280;5025;48.890;9.278;2023-05-22T09:37:08;98417.81;;;21.69;59.20
9969;BME280;5025;48.890;9.278;2023-05-22T09:39:45;98418.34;;;21.71;58.22
9969;BME280;5025;48.890;9.278;2023-05-22T09:42:13;98411.16;;;21.83;58.29
9969;BME280;5025;48.890;9.278;2023-05-22T09:44:39;98414.47;;;21.94;58.45
9969;BME280;5025;48.890;9.278;2023-05-22T09:47:07;98422.47;;;22.05;58.43
9969;BME280;5025;48.890;9.278;2023-05-22T09:49:41;98411.47;;;22.05;57.02
9969;BME280;5025;48.890;9.278;2023-05-22T09:52:07;98416.19;;;22.13;56.89
9969;BME280;5025;48.890;9.278;2023-05-22T09:54:33;98406.84;;;22.14;56.99
9969;BME280;5025;48.890;9.278;2023-05-22T09:56:59;98407.31;;;22.16;57.68
9969;BME280;5025;48.890;9.278;2023-05-22T09:59:26;98407.69;;;22.23;57.49
9969;BME280;5025;48.890;9.278;2023-05-22T10:01:54;98406.66;;;22.42;57.52
9969;BME280;5025;48.890;9.278;2023-05-22T10:04:21;98408.03;;;22.62;57.04
9969;BME280;5025;48.890;9.278;2023-05-22T10:06:50;98401.78;;;22.79;57.15
9969;BME280;5025;48.890;9.278;2023-05-22T10:09:17;98414.06;;;22.72;55.80
9969;BME280;5025;48.890;9.278;2023-05-22T10:11:43;98421.38;;;22.68;56.11
9969;BME280;5025;48.890;9.278;2023-05-22T10:14:09;98398.56;;;22.77;56.21
9969;BME280;5025;48.890;9.278;2023-05-22T10:16:35;98404.25;;;22.89;55.83
9969;BME280;5025;48.890;9.278;2023-05-22T10:19:04;98398.31;;;23.04;55.96
9969;BME280;5025;48.890;9.278;2023-05-22T10:21:30;98400.63;;;23.20;56.09
9969;BME280;5025;48.890;9.278;2023-05-22T10:23:58;98404.03;;;23.34;56.05
9969;BME280;5025;48.890;9.278;2023-05-22T10:26:25;98399.34;;;23.43;56.32
9969;BME280;5025;48.890;9.278;2023-05-22T10:29:13;98392.88;;;23.57;55.76
9969;BME280;5025;48.890;9.278;2023-05-22T10:34:27;98400.94;;;23.79;55.74
9969;BME280;5025;48.890;9.278;2023-05-22T10:42:20;98393.19;;;23.99;55.55
9969;BME280;5025;48.890;9.278;2023-05-22T10:44:46;98390.25;;;24.04;55.70
9969;BME280;5025;48.890;9.278;2023-05-22T10:47:13;98382.28;;;24.11;55.56
9969;BME280;5025;48.890;9.278;2023-05-22T10:49:44;98385.66;;;24.26;55.09
9969;BME280;5025;48.890;9.278;2023-05-22T10:52:10;98384.16;;;24.37;54.88
9969;BME280;5025;48.890;9.278;2023-05-22T10:54:43;98378.44;;;24.51;54.94
9969;BME280;5025;48.890;9.278;2023-05-22T10:57:13;98383.94;;;24.60;54.78
9969;BME280;5025;48.890;9.278;2023-05-22T10:59:38;98376.28;;;24.57;54.51
9969;BME280;5025;48.890;9.278;2023-05-22T11:02:04;98375.47;;;24.56;54.65
9969;BME280;5025;48.890;9.278;2023-05-22T11:04:30;98373.84;;;24.64;54.50
9969;BME280;5025;48.890;9.278;2023-05-22T11:07:02;98375.63;;;24.68;53.92
9969;BME280;5025;48.890;9.278;2023-05-22T11:17:31;98357.34;;;24.85;53.38
9969;BME280;5025;48.890;9.278;2023-05-22T11:22:37;98356.25;;;24.98;53.35
9969;BME280;5025;48.890;9.278;2023-05-22T11:25:24;98359.09;;;25.11;53.51
9969;BME280;5025;48.890;9.278;2023-05-22T11:27:52;98360.81;;;25.24;53.25
9969;BME280;5025;48.890;9.278;2023-05-22T11:30:18;98355.22;;;25.33;53.22
9969;BME280;5025;48.890;9.278;2023-05-22T11:32:45;98352.41;;;25.41;52.99
9969;BME280;5025;48.890;9.278;2023-05-22T11:35:19;98348.06;;;25.53;53.00
9969;BME280;5025;48.890;9.278;2023-05-22T11:37:47;98347.50;;;25.47;51.74
9969;BME280;5025;48.890;9.278;2023-05-22T11:40:15;98348.63;;;25.46;51.61
9969;BME280;5025;48.890;9.278;2023-05-22T11:42:40;98346.47;;;25.52;51.74
9969;BME280;5025;48.890;9.278;2023-05-22T11:45:06;98336.25;;;25.65;51.79
9969;BME280;5025;48.890;9.278;2023-05-22T11:47:32;98328.47;;;25.79;51.75
9969;BME280;5025;48.890;9.278;2023-05-22T11:49:57;98335.78;;;25.96;51.50
9969;BME280;5025;48.890;9.278;2023-05-22T11:52:24;98321.66;;;26.10;51.55
9969;BME280;5025;48.890;9.278;2023-05-22T11:54:50;98325.00;;;26.16;51.31
9969;BME280;5025;48.890;9.278;2023-05-22T11:57:17;98319.25;;;26.21;51.28
9969;BME280;5025;48.890;9.278;2023-05-22T11:59:46;98318.22;;;26.25;51.09
9969;BME280;5025;48.890;9.278;2023-05-22T12:02:11;98318.47;;;26.33;50.98
9969;BME280;5025;48.890;9.278;2023-05-22T12:04:38;98319.16;;;26.29;50.24
9969;BME280;5025;48.890;9.278;2023-05-22T12:07:04;98317.31;;;26.34;50.38
9969;BME280;5025;48.890;9.278;2023-05-22T12:09:29;98308.44;;;26.40;50.54
9969;BME280;5025;48.890;9.278;2023-05-22T12:11:55;98321.00;;;26.50;50.11
9969;BME280;5025;48.890;9.278;2023-05-22T12:14:26;98308.28;;;26.61;49.99
9969;BME280;5025;48.890;9.278;2023-05-22T12:16:53;98307.97;;;26.75;49.80
9969;BME280;5025;48.890;9.278;2023-05-22T12:19:18;98304.38;;;26.87;49.95
9969;BME280;5025;48.890;9.278;2023-05-22T12:21:44;98301.84;;;26.94;49.55
9969;BME280;5025;48.890;9.278;2023-05-22T12:24:09;98306.19;;;26.95;49.30
9969;BME280;5025;48.890;9.278;2023-05-22T12:26:35;98299.97;;;26.98;48.94
9969;BME280;5025;48.890;9.278;2023-05-22T12:29:01;98304.94;;;27.05;48.73
9969;BME280;5025;48.890;9.278;2023-05-22T12:31:29;98300.63;;;27.08;48.23
9969;BME280;5025;48.890;9.278;2023-05-22T12:33:57;98294.06;;;27.00;47.14
9969;BME280;5025;48.890;9.278;2023-05-22T12:36:33;98297.22;;;26.86;46.24
9969;BME280;5025;48.890;9.278;2023-05-22T12:38:58;98286.72;;;26.92;47.01
9969;BME280;5025;48.890;9.278;2023-05-22T12:41:24;98295.13;;;26.95;46.70
9969;BME280;5025;48.890;9.278;2023-05-22T12:43:49;98290.72;;;27.07;46.66
9969;BME280;5025;48.890;9.278;2023-05-22T12:46:14;98293.81;;;27.17;46.74
9969;BME280;5025;48.890;9.278;2023-05-22T12:48:40;98295.22;;;27.11;44.71
9969;BME280;5025;48.890;9.278;2023-05-22T12:51:05;98301.41;;;27.21;45.13
9969;BME280;5025;48.890;9.278;2023-05-22T12:53:30;98303.97;;;27.13;45.01
9969;BME280;5025;48.890;9.278;2023-05-22T12:55:55;98309.47;;;27.26;44.98
9969;BME280;5025;48.890;9.278;2023-05-22T12:58:21;98308.91;;;27.20;44.49
9969;BME280;5025;48.890;9.278;2023-05-22T13:00:46;98303.59;;;27.27;44.45
9969;BME280;5025;48.890;9.278;2023-05-22T13:03:11;98295.50;;;27.34;44.65
9969;BME280;5025;48.890;9.278;2023-05-22T13:05:37;98292.91;;;27.42;44.54
9969;BME280;5025;48.890;9.278;2023-05-22T13:08:02;98298.31;;;27.50;43.95
9969;BME280;5025;48.890;9.278;2023-05-22T13:10:27;98288.03;;;27.51;43.60
9969;BME280;5025;48.890;9.278;2023-05-22T13:12:53;98292.63;;;27.59;43.86
9969;BME280;5025;48.890;9.278;2023-05-22T13:15:18;98297.38;;;27.75;43.91
9969;BME280;5025;48.890;9.278;2023-05-22T13:17:43;98296.44;;;27.83;43.67
9969;BME280;5025;48.890;9.278;2023-05-22T13:20:10;98285.38;;;27.99;43.32
9969;BME280;5025;48.890;9.278;2023-05-22T13:22:35;98286.97;;;28.16;43.25
9969;BME280;5025;48.890;9.278;2023-05-22T13:25:01;98282.25;;;28.32;43.28
9969;BME280;5025;48.890;9.278;2023-05-22T13:27:26;98277.44;;;28.49;43.04
9969;BME280;5025;48.890;9.278;2023-05-22T13:29:52;98279.63;;;28.55;42.68
9969;BME280;5025;48.890;9.278;2023-05-22T13:32:17;98275.31;;;28.42;42.37
9969;BME280;5025;48.890;9.278;2023-05-22T13:34:43;98273.81;;;28.44;42.47
9969;BME280;5025;48.890;9.278;2023-05-22T13:37:08;98276.47;;;28.57;42.16
9969;BME280;5025;48.890;9.278;2023-05-22T13:39:33;98271.56;;;28.66;42.02
9969;BME280;5025;48.890;9.278;2023-05-22T13:41:59;98270.97;;;28.76;42.05
9969;BME280;5025;48.890;9.278;2023-05-22T13:44:25;98270.41;;;28.87;42.04